Time;durP1;ratioP1;P1;durP2;ratioP2;P2;SDS_P1;SDS_P2;PMS_P1;PMS_P2;Temp;Humidity;BMP_temperature;BMP_pressure;BME280_temperature;BME280_humidity;BME280_pressure;Samples;Min_cycle;Max_cycle;Signal;HPM_P1;HPM_P2
2023/10/13 00:02:04;;;;;;;17.77;16.43;;;15.80;99.90;;;;;;4867546;29;20883;-44
2023/10/13 00:04:35;;;;;;;18.70;16.80;;;15.80;99.90;;;;;;4867346;29;20530;-39
2023/10/13 00:07:02;;;;;;;17.90;16.50;;;15.80;99.90;;;;;;4866121;29;20448;-40
2023/10/13 00:09:37;;;;;;;17.90;16.50;;;15.80;99.90;;;;;;4866709;29;21773;-40
2023/10/13 00:12:04;;;;;;;18.43;17.13;;;15.80;99.90;;;;;;4867583;29;20447;-39
2023/10/13 00:14:33;;;;;;;17.47;16.13;;;15.80;99.90;;;;;;4867172;29;20424;-40
2023/10/13 00:17:04;;;;;;;18.07;16.53;;;15.80;99.90;;;;;;4865383;29;21369;-41
2023/10/13 00:19:37;;;;;;;16.97;15.87;;;15.70;99.90;;;;;;4863988;29;20440;-40
2023/10/13 00:22:09;;;;;;;18.10;16.70;;;15.70;99.90;;;;;;4867371;29;20511;-40
2023/10/13 00:24:42;;;;;;;17.17;15.97;;;15.60;99.90;;;;;;4866528;29;20532;-42
2023/10/13 00:27:36;;;;;;;17.00;15.70;;;15.60;99.90;;;;;;4867296;29;20417;-41
2023/10/13 00:32:46;;;;;;;17.77;16.47;;;15.50;99.90;;;;;;4870894;29;20488;-39
2023/10/13 00:35:24;;;;;;;16.73;15.60;;;15.50;99.90;;;;;;4871124;29;20421;-39
2023/10/13 00:37:53;;;;;;;17.77;16.10;;;15.40;99.90;;;;;;4870742;29;20485;-40
2023/10/13 00:40:41;;;;;;;17.50;16.20;;;15.40;99.90;;;;;;4870168;29;20506;-41
2023/10/13 00:48:45;;;;;;;18.10;16.70;;;15.40;99.90;;;;;;4868083;29;20444;-40
2023/10/13 00:51:22;;;;;;;17.17;15.80;;;15.40;99.90;;;;;;4868294;29;20553;-41
2023/10/13 00:53:48;;;;;;;17.80;16.13;;;15.50;99.90;;;;;;4871070;29;20427;-40
2023/10/13 00:56:27;;;;;;;16.40;15.20;;;15.50;99.90;;;;;;4870522;29;21439;-45
2023/10/13 00:58:57;;;;;;;16.67;15.27;;;15.50;99.90;;;;;;4869738;29;20440;-41
2023/10/13 01:01:28;;;;;;;18.10;16.50;;;15.50;99.90;;;;;;4870841;29;20981;-40
2023/10/13 01:04:02;;;;;;;18.23;16.70;;;15.60;99.90;;;;;;4870595;29;20523;-39
2023/10/13 01:06:28;;;;;;;17.57;16.07;;;15.60;99.90;;;;;;4870083;29;20439;-39
2023/10/13 01:09:14;;;;;;;17.67;16.30;;;15.60;99.90;;;;;;4869263;29;20440;-43
2023/10/13 01:11:44;;;;;;;16.80;15.77;;;15.70;99.90;;;;;;4869374;29;20463;-40
2023/10/13 01:14:17;;;;;;;16.27;15.20;;;15.70;99.90;;;;;;4869667;29;20535;-40
2023/10/13 01:16:45;;;;;;;17.53;16.30;;;15.70;99.90;;;;;;4870211;29;20433;-42
2023/10/13 01:19:18;;;;;;;16.50;15.20;;;15.70;99.90;;;;;;4867593;29;20448;-40
2023/10/13 01:21:47;;;;;;;17.57;16.10;;;15.70;99.90;;;;;;4869497;29;20447;-40
2023/10/13 01:24:13;;;;;;;17.90;16.33;;;15.70;99.90;;;;;;4870366;29;20499;-40
2023/10/13 01:26:40;;;;;;;17.40;15.90;;;15.70;99.90;;;;;;4868948;29;21604;-40
2023/10/13 01:29:14;;;;;;;17.33;15.90;;;15.70;99.90;;;;;;4869775;29;20440;-40
2023/10/13 01:31:47;;;;;;;17.67;16.47;;;15.80;99.90;;;;;;4869481;29;20436;-40
2023/10/13 01:34:22;;;;;;;17.50;16.20;;;15.70;99.90;;;;;;4870311;29;20468;-40
2023/10/13 01:36:50;;;;;;;16.97;15.57;;;15.80;99.90;;;;;;4870107;29;20506;-40
2023/10/13 01:39:17;;;;;;;17.33;16.13;;;15.80;99.90;;;;;;4868904;29;20464;-40
2023/10/13 01:41:43;;;;;;;16.33;15.13;;;15.80;99.90;;;;;;4867975;29;21197;-40
2023/10/13 01:44:12;;;;;;;17.60;16.30;;;15.80;99.90;;;;;;4870268;29;20420;-40
2023/10/13 01:46:42;;;;;;;17.87;16.57;;;15.80;99.90;;;;;;4869183;29;20440;-39
2023/10/13 01:49:08;;;;;;;16.30;15.03;;;15.80;99.90;;;;;;4867984;29;20874;-39
2023/10/13 01:51:34;;;;;;;16.23;15.07;;;15.80;99.90;;;;;;4869666;29;20492;-41
2023/10/13 01:54:04;;;;;;;17.67;16.47;;;15.80;99.90;;;;;;4868974;29;20787;-40
2023/10/13 01:56:30;;;;;;;17.07;15.87;;;15.80;99.90;;;;;;4869174;29;20243;-40
2023/10/13 01:58:55;;;;;;;17.10;15.90;;;15.80;99.90;;;;;;4869714;29;20899;-40
2023/10/13 02:01:27;;;;;;;16.00;14.90;;;15.80;99.90;;;;;;4869063;29;20436;-41
2023/10/13 02:04:02;;;;;;;17.70;16.30;;;15.90;99.90;;;;;;4869115;29;20184;-39
2023/10/13 02:06:33;;;;;;;16.47;15.27;;;15.90;99.90;;;;;;4868268;29;20432;-40
2023/10/13 02:09:12;;;;;;;16.73;15.53;;;15.90;99.90;;;;;;4869379;29;20420;-43
2023/10/13 02:11:45;;;;;;;17.73;16.20;;;15.90;99.90;;;;;;4868358;29;21636;-39
2023/10/13 02:14:16;;;;;;;16.83;15.70;;;15.90;99.90;;;;;;4868384;29;20955;-39
2023/10/13 02:16:42;;;;;;;17.77;16.47;;;15.90;99.90;;;;;;4868656;29;20448;-40
2023/10/13 02:19:08;;;;;;;17.57;16.07;;;15.90;99.90;;;;;;4867303;29;20444;-39
2023/10/13 02:21:39;;;;;;;17.07;15.77;;;15.90;99.90;;;;;;4868432;29;20425;-39
2023/10/13 02:24:13;;;;;;;17.07;15.87;;;15.90;99.90;;;;;;4869105;29;20539;-39
2023/10/13 02:26:40;;;;;;;17.73;16.33;;;15.80;99.90;;;;;;4869052;29;20428;-39
2023/10/13 02:29:09;;;;;;;18.10;16.60;;;15.90;99.90;;;;;;4867988;29;21033;-40
2023/10/13 02:31:36;;;;;;;16.40;15.20;;;15.90;99.90;;;;;;4868495;29;20416;-39
2023/10/13 02:34:07;;;;;;;16.73;15.50;;;15.90;99.90;;;;;;4868998;29;20429;-40
2023/10/13 02:36:43;;;;;;;16.77;15.43;;;15.90;99.90;;;;;;4868680;29;20927;-46
2023/10/13 02:39:09;;;;;;;16.60;15.40;;;16.00;99.90;;;;;;4867680;29;20436;-39
2023/10/13 02:41:38;;;;;;;17.03;15.47;;;15.90;99.90;;;;;;4867602;29;20511;-39
2023/10/13 02:44:10;;;;;;;17.30;15.83;;;16.00;99.90;;;;;;4867864;29;20210;-39
2023/10/13 02:46:39;;;;;;;16.90;15.67;;;16.00;99.90;;;;;;4867741;29;20455;-39
2023/10/13 02:49:11;;;;;;;17.00;15.70;;;16.00;99.90;;;;;;4868009;29;20939;-39
2023/10/13 02:51:41;;;;;;;17.40;15.73;;;16.00;99.90;;;;;;4868801;29;20528;-39
2023/10/13 02:54:11;;;;;;;16.90;15.50;;;16.00;99.90;;;;;;4867510;29;20416;-40
2023/10/13 02:56:48;;;;;;;16.80;15.50;;;16.00;99.90;;;;;;4868307;29;20428;-41
2023/10/13 02:59:14;;;;;;;16.80;15.60;;;16.10;99.90;;;;;;4866679;29;20440;-41
2023/10/13 03:01:39;;;;;;;17.13;15.77;;;16.10;99.90;;;;;;4866514;29;21061;-41
2023/10/13 03:04:08;;;;;;;16.47;15.20;;;16.10;99.90;;;;;;4868487;29;20284;-41
2023/10/13 03:06:35;;;;;;;16.33;15.20;;;16.10;99.90;;;;;;4868412;29;20664;-40
2023/10/13 03:09:18;;;;;;;17.43;16.03;;;16.10;99.90;;;;;;4867669;29;20492;-41
2023/10/13 03:11:48;;;;;;;16.80;15.40;;;16.10;99.90;;;;;;4866706;29;20786;-41
2023/10/13 03:14:24;;;;;;;16.50;15.27;;;16.10;99.90;;;;;;4868438;29;20420;-40
2023/10/13 03:16:54;;;;;;;15.90;14.80;;;16.10;99.90;;;;;;4866699;29;20431;-41
2023/10/13 03:19:20;;;;;;;16.77;15.37;;;16.10;99.90;;;;;;4867249;29;20820;-41
2023/10/13 03:21:57;;;;;;;16.53;15.43;;;16.20;99.90;;;;;;4867750;29;20448;-41
2023/10/13 03:24:33;;;;;;;16.70;15.33;;;16.20;99.90;;;;;;4868021;29;20420;-46
2023/10/13 03:27:07;;;;;;;17.13;15.93;;;16.20;99.90;;;;;;4867471;29;20491;-40
2023/10/13 03:29:38;;;;;;;15.83;14.60;;;16.20;99.90;;;;;;4866366;29;20448;-41
2023/10/13 03:32:11;;;;;;;16.20;15.10;;;16.20;99.90;;;;;;4868020;29;20424;-41
2023/10/13 03:37:20;;;;;;;16.17;15.03;;;16.10;99.90;;;;;;4868157;29;20990;-40
2023/10/13 03:39:46;;;;;;;15.70;14.60;;;16.20;99.90;;;;;;4866998;29;20480;-40
2023/10/13 03:42:21;;;;;;;15.30;14.20;;;16.20;99.90;;;;;;4867059;29;20448;-40
2023/10/13 03:44:47;;;;;;;16.23;14.97;;;16.20;99.90;;;;;;4866324;29;20785;-40
2023/10/13 03:47:26;;;;;;;15.70;14.30;;;16.20;99.90;;;;;;4867679;29;20428;-40
2023/10/13 03:50:14;;;;;;;15.03;14.00;;;16.20;99.90;;;;;;4867143;29;20623;-40
2023/10/13 03:52:39;;;;;;;15.77;14.67;;;16.20;99.90;;;;;;4867468;29;20432;-40
2023/10/13 03:55:06;;;;;;;15.40;14.20;;;16.30;99.90;;;;;;4867589;29;20432;-41
2023/10/13 03:57:37;;;;;;;15.40;14.10;;;16.30;99.90;;;;;;4867040;29;20675;-40
2023/10/13 04:00:09;;;;;;;15.40;14.27;;;16.30;99.90;;;;;;4867211;29;20436;-40
2023/10/13 04:02:36;;;;;;;16.10;14.80;;;16.30;99.90;;;;;;4865722;29;20440;-40
2023/10/13 04:05:09;;;;;;;14.97;13.97;;;16.30;99.90;;;;;;4865857;29;20471;-40
2023/10/13 04:08:44;;;;;;;14.80;13.80;;;16.30;99.90;;;;;;4866407;29;20450;-48
2023/10/13 04:16:54;;;;;;;15.83;14.73;;;16.30;99.90;;;;;;4865967;29;20500;-39
2023/10/13 04:21:39;;;;;;;14.77;13.47;;;16.20;99.90;;;;;;4865718;29;20436;-40
2023/10/13 04:29:51;;;;;;;14.70;13.60;;;16.20;99.90;;;;;;4865575;29;20508;-40
2023/10/13 04:32:32;;;;;;;13.77;12.67;;;16.10;99.90;;;;;;4866742;29;20899;-40
2023/10/13 04:38:01;;;;;;;15.43;14.23;;;16.10;99.90;;;;;;4863882;29;20515;-39
2023/10/13 04:40:34;;;;;;;14.23;13.17;;;16.00;99.90;;;;;;4866874;29;20475;-39
2023/10/13 04:43:04;;;;;;;15.50;14.30;;;16.00;99.90;;;;;;4867248;29;20417;-39
2023/10/13 04:50:45;;;;;;;15.50;14.50;;;16.00;99.90;;;;;;4867233;29;20423;-39
2023/10/13 04:53:33;;;;;;;15.13;13.90;;;16.10;99.90;;;;;;4866889;29;20764;-42
2023/10/13 05:45:25;;;;;;;15.57;14.47;;;15.90;99.90;;;;;;4868392;29;20536;-41
2023/10/13 05:48:01;;;;;;;15.17;14.07;;;15.90;99.90;;;;;;4869207;29;20497;-41
2023/10/13 05:50:49;;;;;;;14.60;13.50;;;15.90;99.90;;;;;;4869451;29;20426;-48
2023/10/13 06:28:52;;;;;;;15.00;13.80;;;17.10;99.90;;;;;;4868436;29;20427;-41
2023/10/13 06:31:27;;;;;;;14.80;13.70;;;17.20;99.90;;;;;;4868260;29;20783;-40
2023/10/13 06:33:55;;;;;;;15.23;13.93;;;17.30;99.90;;;;;;4868513;29;20897;-40
2023/10/13 06:36:20;;;;;;;16.03;14.70;;;17.30;99.90;;;;;;4867904;29;20432;-39
2023/10/13 06:38:54;;;;;;;16.30;15.00;;;17.40;99.90;;;;;;4867767;29;20519;-40
2023/10/13 06:41:30;;;;;;;18.27;16.70;;;17.40;99.90;;;;;;4866256;29;20227;-41
2023/10/13 06:44:05;;;;;;;19.50;17.70;;;17.50;99.90;;;;;;4868063;29;20766;-40
2023/10/13 06:46:33;;;;;;;18.70;17.20;;;17.50;99.90;;;;;;4868239;29;20775;-42
2023/10/13 06:49:00;;;;;;;17.50;16.07;;;17.60;99.90;;;;;;4868617;29;20472;-41
2023/10/13 06:51:30;;;;;;;18.57;17.03;;;17.60;99.90;;;;;;4868041;29;20443;-40
2023/10/13 06:53:56;;;;;;;17.40;15.80;;;17.70;99.90;;;;;;4868212;29;20443;-42
2023/10/13 06:56:27;;;;;;;20.13;18.43;;;17.80;99.90;;;;;;4867092;29;20530;-41
2023/10/13 06:58:59;;;;;;;19.93;18.27;;;17.90;99.90;;;;;;4867287;29;20207;-42
2023/10/13 07:01:27;;;;;;;19.90;18.20;;;18.00;99.90;;;;;;4867485;29;20436;-43
2023/10/13 07:03:53;;;;;;;20.60;18.80;;;18.10;99.90;;;;;;4868005;29;20795;-40
2023/10/13 07:06:20;;;;;;;21.87;19.90;;;18.10;99.90;;;;;;4867740;29;20408;-40
2023/10/13 07:08:51;;;;;;;20.73;18.90;;;18.20;99.90;;;;;;4867706;29;20199;-42
2023/10/13 07:11:33;;;;;;;19.70;18.10;;;18.30;99.90;;;;;;4867838;29;20554;-42
2023/10/13 07:14:20;;;;;;;22.60;20.60;;;18.40;99.90;;;;;;4867477;29;20431;-42
2023/10/13 07:17:24;;;;;;;22.00;19.80;;;18.60;99.90;;;;;;4867304;29;20428;-41
2023/10/13 07:19:53;;;;;;;20.40;18.60;;;18.70;99.90;;;;;;4856449;29;20436;-44
2023/10/13 07:22:20;;;;;;;20.90;19.30;;;18.70;99.90;;;;;;4867312;29;20512;-40
2023/10/13 07:24:49;;;;;;;19.80;18.00;;;18.90;99.90;;;;;;4867421;29;20413;-42
2023/10/13 07:27:25;;;;;;;20.20;18.43;;;18.90;99.90;;;;;;4866020;29;20451;-42
2023/10/13 07:29:57;;;;;;;21.57;19.67;;;19.00;99.90;;;;;;4866747;29;20452;-42
2023/10/13 07:32:27;;;;;;;20.97;19.27;;;19.10;99.90;;;;;;4867267;29;20412;-44
2023/10/13 07:34:57;;;;;;;20.57;18.70;;;19.30;99.90;;;;;;4867322;29;20431;-42
2023/10/13 07:37:28;;;;;;;19.70;17.90;;;19.30;99.90;;;;;;4866271;29;20531;-49
2023/10/13 07:39:57;;;;;;;20.20;18.50;;;19.30;99.90;;;;;;4866387;29;20496;-47
2023/10/13 07:42:26;;;;;;;19.90;18.30;;;19.50;99.90;;;;;;4867379;29;20512;-49
2023/10/13 07:44:55;;;;;;;19.37;17.67;;;19.60;99.90;;;;;;4865186;29;21103;-43
2023/10/13 07:47:24;;;;;;;19.23;17.57;;;19.70;99.90;;;;;;4866040;29;20428;-48
2023/10/13 07:49:50;;;;;;;20.00;18.40;;;19.90;99.90;;;;;;4866287;29;20689;-52
2023/10/13 07:54:50;;;;;;;21.57;19.80;;;20.10;99.90;;;;;;4866453;29;20439;-45
2023/10/13 07:57:17;;;;;;;18.30;17.00;;;20.10;99.90;;;;;;4864625;29;20521;-48
2023/10/13 07:59:52;;;;;;;18.60;17.17;;;20.20;99.90;;;;;;4864764;29;20867;-48
2023/10/13 08:05:04;;;;;;;18.70;17.10;;;20.40;99.90;;;;;;4864601;29;20432;-47
2023/10/13 08:07:31;;;;;;;18.00;16.50;;;20.50;99.90;;;;;;4864157;29;20416;-46
2023/10/13 08:09:59;;;;;;;17.93;16.33;;;20.80;99.90;;;;;;4864271;29;20436;-45
2023/10/13 08:12:25;;;;;;;16.50;15.20;;;21.30;99.90;;;;;;4864812;29;20420;-46
2023/10/13 08:15:09;;;;;;;18.37;17.00;;;21.80;99.90;;;;;;4866524;29;20433;-47
2023/10/13 08:17:35;;;;;;;16.60;15.40;;;22.20;99.90;;;;;;4864640;29;20487;-45
2023/10/13 08:20:11;;;;;;;16.00;14.90;;;22.60;99.90;;;;;;4857666;29;20480;-44
2023/10/13 08:22:38;;;;;;;16.30;15.20;;;22.80;99.90;;;;;;4864809;29;20215;-48
2023/10/13 08:27:49;;;;;;;14.93;13.93;;;22.70;99.90;;;;;;4864935;29;20463;-48
2023/10/13 08:30:31;;;;;;;14.47;13.57;;;22.60;99.90;;;;;;4866012;29;20437;-47
2023/10/13 08:32:57;;;;;;;14.33;13.33;;;22.40;99.90;;;;;;4866192;29;20448;-47
2023/10/13 08:43:12;;;;;;;14.37;13.37;;;22.40;99.90;;;;;;4864970;29;20287;-46
2023/10/13 08:59:05;;;;;;;13.77;12.87;;;23.80;99.90;;;;;;4862060;29;20467;-48
2023/10/13 09:12:18;;;;;;;15.00;14.07;;;23.30;99.90;;;;;;4864580;29;20451;-47
2023/10/13 09:14:44;;;;;;;14.67;13.70;;;23.00;99.90;;;;;;4868599;29;20443;-46
2023/10/13 09:19:56;;;;;;;14.10;13.27;;;22.90;99.90;;;;;;4867806;29;20904;-53
2023/10/13 09:22:36;;;;;;;14.80;13.90;;;22.90;99.90;;;;;;4867625;29;20499;-47
2023/10/13 09:25:04;;;;;;;11.63;11.03;;;22.90;99.90;;;;;;4865236;29;20466;-45
2023/10/13 09:27:37;;;;;;;12.97;12.27;;;22.80;99.90;;;;;;4868089;29;20440;-50
2023/10/13 09:30:23;;;;;;;13.47;12.77;;;22.70;99.90;;;;;;4867902;29;20443;-51
2023/10/13 09:33:04;;;;;;;14.27;13.37;;;22.50;99.90;;;;;;4865455;29;20443;-48
2023/10/13 09:35:33;;;;;;;13.30;12.60;;;22.30;99.90;;;;;;4866510;29;20534;-50
2023/10/13 09:38:02;;;;;;;14.13;13.33;;;22.20;99.90;;;;;;4868160;29;20480;-47
2023/10/13 09:40:37;;;;;;;14.70;13.90;;;22.20;99.90;;;;;;4867592;29;20483;-49
2023/10/13 09:43:14;;;;;;;14.63;13.73;;;22.30;99.90;;;;;;4864350;29;20947;-50
2023/10/13 09:46:15;;;;;;;15.67;14.67;;;22.30;99.90;;;;;;4868021;29;20739;-48
2023/10/13 09:48:35;;;;;;;15.37;14.23;;;22.30;99.90;;;;;;4865077;29;20487;-47
2023/10/13 09:51:09;;;;;;;15.90;14.83;;;22.30;99.90;;;;;;4867828;29;20459;-45
2023/10/13 09:53:38;;;;;;;16.93;15.73;;;22.30;99.90;;;;;;4867230;29;21170;-52
2023/10/13 09:56:19;;;;;;;18.27;16.87;;;22.20;99.90;;;;;;4864064;29;20506;-44
2023/10/13 09:59:12;;;;;;;19.03;17.63;;;22.20;99.90;;;;;;4867663;29;20838;-51
2023/10/13 10:01:50;;;;;;;20.53;18.93;;;22.00;99.90;;;;;;4860798;29;20502;-45
2023/10/13 10:04:18;;;;;;;20.00;18.20;;;21.90;99.90;;;;;;4867095;29;20436;-47
2023/10/13 10:06:54;;;;;;;21.83;19.93;;;21.80;99.90;;;;;;4867863;29;20441;-44
2023/10/13 10:09:34;;;;;;;19.80;18.03;;;21.70;99.90;;;;;;4864504;29;20432;-45
2023/10/13 10:12:28;;;;;;;22.60;20.60;;;21.60;99.90;;;;;;4868026;29;20432;-49
2023/10/13 10:15:33;;;;;;;21.63;19.87;;;21.50;99.90;;;;;;4864123;29;20963;-47
2023/10/13 10:18:00;;;;;;;22.97;21.00;;;21.40;99.90;;;;;;4866129;29;20478;-48
2023/10/13 10:20:44;;;;;;;23.20;21.03;;;21.40;99.90;;;;;;4868307;29;20424;-47
2023/10/13 10:23:21;;;;;;;21.90;19.90;;;21.50;99.90;;;;;;4862993;29;20535;-47
2023/10/13 10:25:50;;;;;;;21.27;19.50;;;21.30;99.90;;;;;;4863075;29;20420;-48
2023/10/13 10:28:16;;;;;;;22.20;20.30;;;21.40;99.90;;;;;;4866228;29;20479;-47
2023/10/13 10:30:43;;;;;;;21.80;19.73;;;21.40;99.90;;;;;;4866780;29;20527;-45
2023/10/13 10:33:15;;;;;;;19.57;18.00;;;21.40;99.90;;;;;;4867743;29;20218;-49
2023/10/13 10:35:42;;;;;;;22.30;20.57;;;21.40;99.90;;;;;;4861796;29;20428;-46
2023/10/13 10:38:15;;;;;;;20.80;19.10;;;21.30;99.90;;;;;;4865828;29;20712;-46
2023/10/13 10:41:00;;;;;;;20.73;19.03;;;21.20;99.90;;;;;;4864199;29;20491;-44
2023/10/13 10:43:42;;;;;;;22.80;20.80;;;21.20;99.90;;;;;;4867119;29;20444;-49
2023/10/13 10:46:27;;;;;;;23.00;21.10;;;21.10;99.90;;;;;;4863721;29;20799;-46
2023/10/13 10:48:57;;;;;;;22.13;20.23;;;21.10;99.90;;;;;;4866893;29;20807;-44
2023/10/13 10:51:31;;;;;;;20.93;19.20;;;21.10;99.90;;;;;;4864470;29;20448;-47
2023/10/13 10:53:57;;;;;;;22.73;20.73;;;21.10;99.90;;;;;;4865244;29;20435;-50
2023/10/13 10:56:36;;;;;;;22.10;20.27;;;21.10;99.90;;;;;;4862227;29;21146;-47
2023/10/13 10:59:04;;;;;;;21.70;19.80;;;21.10;99.90;;;;;;4866794;29;20478;-46
2023/10/13 11:01:38;;;;;;;20.97;19.30;;;21.10;99.90;;;;;;4866249;29;20494;-48
2023/10/13 11:04:18;;;;;;;21.40;19.53;;;21.10;99.90;;;;;;4866602;29;20433;-47
2023/10/13 11:06:54;;;;;;;20.23;18.63;;;21.20;99.90;;;;;;4867112;29;20519;-47
2023/10/13 11:09:36;;;;;;;20.83;19.07;;;21.20;99.90;;;;;;4865970;29;20445;-52
2023/10/13 11:12:14;;;;;;;21.43;19.73;;;21.20;99.90;;;;;;4865360;29;20798;-49
2023/10/13 11:14:48;;;;;;;20.60;18.77;;;21.30;99.90;;;;;;4864665;29;20523;-52
2023/10/13 11:17:24;;;;;;;19.10;17.57;;;21.20;99.90;;;;;;4867476;29;21616;-49
2023/10/13 11:19:51;;;;;;;20.13;18.50;;;21.30;99.90;;;;;;4867200;29;20442;-50
2023/10/13 11:22:41;;;;;;;20.37;18.87;;;21.40;99.90;;;;;;4865356;29;20435;-48
2023/10/13 11:25:11;;;;;;;19.70;18.10;;;21.50;99.90;;;;;;4867620;29;20420;-50
2023/10/13 11:27:44;;;;;;;19.93;18.30;;;21.50;99.90;;;;;;4868267;29;20425;-45
2023/10/13 11:30:15;;;;;;;19.00;17.47;;;21.50;99.90;;;;;;4864352;29;20444;-49
2023/10/13 11:32:43;;;;;;;18.57;17.13;;;21.50;99.90;;;;;;4866488;29;20839;-51
2023/10/13 11:38:13;;;;;;;19.47;17.90;;;21.40;99.90;;;;;;4863367;29;20946;-51
2023/10/13 11:41:07;;;;;;;19.30;17.80;;;21.50;99.90;;;;;;4867213;29;20834;-51
2023/10/13 11:46:16;;;;;;;19.03;17.73;;;21.20;99.90;;;;;;4866639;29;21104;-50
2023/10/13 11:48:43;;;;;;;18.67;17.10;;;21.30;99.90;;;;;;4865773;29;20996;-51
2023/10/13 11:51:47;;;;;;;18.73;17.23;;;21.30;99.90;;;;;;4865953;29;20800;-48
2023/10/13 11:54:05;;;;;;;16.17;15.00;;;21.30;99.90;;;;;;4865926;29;20433;-47
2023/10/13 11:56:31;;;;;;;17.80;16.20;;;21.30;99.90;;;;;;4866991;29;20496;-47
2023/10/13 11:59:01;;;;;;;17.80;16.50;;;21.40;99.90;;;;;;4866983;29;20255;-52
2023/10/13 12:04:32;;;;;;;17.80;16.13;;;21.40;99.90;;;;;;4867413;29;20662;-52
2023/10/13 12:04:33;;;;;;;17.30;16.00;;;21.50;99.90;;;;;;4867456;29;20544;-52
2023/10/13 12:07:20;;;;;;;17.73;16.30;;;21.50;99.90;;;;;;4866830;29;20797;-42
2023/10/13 12:12:21;;;;;;;18.40;17.00;;;21.60;99.90;;;;;;4867579;29;20522;-47
2023/10/13 12:14:54;;;;;;;18.67;17.17;;;21.60;99.90;;;;;;4866001;29;20439;-47
2023/10/13 12:17:39;;;;;;;17.47;16.10;;;21.60;99.90;;;;;;4866719;29;21043;-50
2023/10/13 12:20:10;;;;;;;17.83;16.63;;;21.50;99.90;;;;;;4867006;29;20431;-49
2023/10/13 12:22:39;;;;;;;18.97;17.13;;;21.50;99.90;;;;;;4862190;29;20420;-53
2023/10/13 12:27:57;;;;;;;17.70;16.50;;;21.50;99.90;;;;;;4865107;29;20463;-51
2023/10/13 12:33:25;;;;;;;18.33;16.83;;;21.30;99.90;;;;;;4852524;29;20425;-50
2023/10/13 12:52:19;;;;;;;17.63;16.33;;;21.40;99.90;;;;;;4865351;29;21014;-46
2023/10/13 12:57:27;;;;;;;15.73;14.43;;;21.40;99.90;;;;;;4866480;29;20479;-45
2023/10/13 12:59:54;;;;;;;17.10;15.80;;;21.50;99.90;;;;;;4866670;29;20470;-52
2023/10/13 13:02:26;;;;;;;15.80;14.80;;;21.50;99.90;;;;;;4864493;29;20523;-48
2023/10/13 13:05:05;;;;;;;16.83;15.63;;;21.50;99.90;;;;;;4865836;29;20460;-46
2023/10/13 13:07:31;;;;;;;16.70;15.60;;;21.60;99.90;;;;;;4866347;29;20540;-45
2023/10/13 13:10:00;;;;;;;16.70;15.40;;;21.80;99.90;;;;;;4866362;29;20444;-46
2023/10/13 13:12:28;;;;;;;17.23;15.87;;;22.00;99.90;;;;;;4862797;29;20807;-51
2023/10/13 13:14:55;;;;;;;14.93;13.63;;;22.10;99.90;;;;;;4866515;29;20440;-49
2023/10/13 13:17:21;;;;;;;15.70;14.70;;;22.30;99.90;;;;;;4866437;29;20611;-47
2023/10/13 13:19:47;;;;;;;14.33;13.40;;;22.40;99.90;;;;;;4866639;29;20912;-47
2023/10/13 13:22:13;;;;;;;15.37;14.10;;;22.60;99.90;;;;;;4867040;29;20436;-46
2023/10/13 13:25:00;;;;;;;16.10;14.80;;;22.90;99.90;;;;;;4866603;29;20200;-47
2023/10/13 13:27:25;;;;;;;17.37;15.80;;;23.10;99.90;;;;;;4866449;29;20211;-46
2023/10/13 13:29:50;;;;;;;15.97;14.87;;;23.30;99.90;;;;;;4866652;29;20509;-47
2023/10/13 13:32:23;;;;;;;14.33;13.43;;;23.30;99.90;;;;;;4865743;29;20681;-47
2023/10/13 13:35:04;;;;;;;15.03;13.93;;;23.50;99.50;;;;;;4866749;29;20207;-48
2023/10/13 13:37:30;;;;;;;15.77;14.77;;;23.90;99.10;;;;;;4866579;29;20467;-45
2023/10/13 13:39:56;;;;;;;14.50;13.37;;;24.70;97.30;;;;;;4868729;29;21130;-50
2023/10/13 13:42:22;;;;;;;14.93;13.83;;;25.30;95.00;;;;;;4869392;29;20424;-49
2023/10/13 13:44:47;;;;;;;14.93;14.03;;;25.50;93.10;;;;;;4867802;29;20192;-48
2023/10/13 13:47:14;;;;;;;14.90;13.83;;;25.40;92.70;;;;;;4868567;29;20312;-46
2023/10/13 13:49:52;;;;;;;15.53;14.43;;;25.30;92.80;;;;;;4868628;29;20199;-48
2023/10/13 13:52:23;;;;;;;16.33;15.23;;;25.20;92.70;;;;;;4868692;29;20439;-52
2023/10/13 13:54:48;;;;;;;14.30;13.40;;;25.30;92.20;;;;;;4867126;29;20892;-48
2023/10/13 13:57:14;;;;;;;15.47;14.27;;;25.40;92.50;;;;;;4867551;29;20448;-46
2023/10/13 13:59:44;;;;;;;15.50;14.40;;;25.40;92.10;;;;;;4867856;29;20698;-45
2023/10/13 14:02:19;;;;;;;14.10;13.10;;;25.30;91.20;;;;;;4866266;29;20184;-48
2023/10/13 14:04:50;;;;;;;15.03;13.97;;;25.50;91.70;;;;;;4867839;29;20440;-50
2023/10/13 14:07:19;;;;;;;14.83;13.67;;;25.90;90.80;;;;;;4867684;29;20448;-52
2023/10/13 14:09:51;;;;;;;14.37;12.97;;;26.30;90.30;;;;;;4866875;29;20971;-50
2023/10/13 14:12:36;;;;;;;14.00;13.10;;;26.70;87.90;;;;;;4865466;29;20412;-50
2023/10/13 14:15:02;;;;;;;14.90;13.67;;;27.20;83.60;;;;;;4868045;29;20431;-49
2023/10/13 14:17:35;;;;;;;15.50;14.30;;;27.40;78.20;;;;;;4865094;29;20483;-48
2023/10/13 14:20:15;;;;;;;16.27;14.70;;;27.70;77.60;;;;;;4866439;29;20472;-50
2023/10/13 14:22:41;;;;;;;14.50;13.57;;;27.80;75.20;;;;;;4865865;29;20939;-46
2023/10/13 14:25:08;;;;;;;14.73;13.83;;;28.00;71.40;;;;;;4867662;29;20448;-51
2023/10/13 14:27:35;;;;;;;15.20;13.83;;;28.00;67.70;;;;;;4867409;29;20965;-49
2023/10/13 14:30:02;;;;;;;14.97;13.87;;;28.10;67.30;;;;;;4864148;29;20484;-47
2023/10/13 14:32:28;;;;;;;14.73;13.93;;;28.10;69.10;;;;;;4863993;29;21116;-47
2023/10/13 14:34:54;;;;;;;15.30;14.30;;;28.10;68.20;;;;;;4866404;29;20468;-48
2023/10/13 14:37:28;;;;;;;15.73;14.53;;;28.10;67.10;;;;;;4866256;29;20455;-51
2023/10/13 14:39:57;;;;;;;14.93;13.83;;;28.00;66.00;;;;;;4827774;29;1130915;-47
2023/10/13 14:42:26;;;;;;;15.20;14.20;;;27.80;65.50;;;;;;4856903;29;20187;-46
2023/10/13 14:44:55;;;;;;;15.30;14.23;;;27.70;67.50;;;;;;4868403;29;20439;-53
2023/10/13 14:47:25;;;;;;;15.73;14.60;;;27.70;69.50;;;;;;4867728;29;20500;-47
2023/10/13 14:49:54;;;;;;;15.30;14.23;;;27.80;66.40;;;;;;4864703;29;20444;-49
2023/10/13 14:52:21;;;;;;;15.83;14.73;;;27.50;66.60;;;;;;4865715;29;20440;-51
2023/10/13 14:54:48;;;;;;;13.97;13.17;;;27.50;66.60;;;;;;4865329;29;20492;-50
2023/10/13 14:57:14;;;;;;;14.80;13.70;;;27.30;67.90;;;;;;4859511;29;20931;-52
2023/10/13 14:59:39;;;;;;;14.30;13.40;;;27.00;67.40;;;;;;4864123;29;20421;-51
2023/10/13 15:02:05;;;;;;;15.57;14.57;;;26.80;67.00;;;;;;4864261;29;20289;-51
2023/10/13 15:04:33;;;;;;;15.00;13.93;;;26.70;68.20;;;;;;4863192;29;20199;-50
2023/10/13 15:07:03;;;;;;;14.17;13.07;;;26.60;67.90;;;;;;4867402;29;20192;-51
2023/10/13 15:09:29;;;;;;;15.47;14.47;;;26.40;69.30;;;;;;4863540;29;20439;-53
2023/10/13 15:11:55;;;;;;;15.57;14.37;;;26.20;68.50;;;;;;4865557;29;20519;-52
2023/10/13 15:14:22;;;;;;;16.03;14.83;;;26.00;70.50;;;;;;4861861;29;20447;-46
2023/10/13 15:16:48;;;;;;;14.50;13.50;;;25.70;71.60;;;;;;4865283;29;20188;-48
2023/10/13 15:19:16;;;;;;;14.50;13.50;;;25.40;72.90;;;;;;4867146;29;20476;-49
2023/10/13 15:21:43;;;;;;;16.00;14.97;;;25.30;73.60;;;;;;4859291;29;20486;-47
2023/10/13 15:24:20;;;;;;;15.57;14.37;;;25.00;74.80;;;;;;4862440;29;20484;-47
2023/10/13 15:26:49;;;;;;;15.87;14.70;;;24.70;75.20;;;;;;4864192;29;20581;-48
2023/10/13 15:29:25;;;;;;;15.10;14.10;;;24.60;77.50;;;;;;4865533;29;20448;-52
2023/10/13 15:32:04;;;;;;;15.10;14.00;;;24.50;79.30;;;;;;4861672;29;20459;-48
2023/10/13 15:34:31;;;;;;;15.60;14.00;;;24.30;80.30;;;;;;4865984;29;20436;-51
2023/10/13 15:36:58;;;;;;;15.73;14.60;;;24.10;81.90;;;;;;4866611;29;20991;-52
2023/10/13 15:39:28;;;;;;;14.50;13.50;;;23.90;82.40;;;;;;4865513;29;20476;-51
2023/10/13 15:41:58;;;;;;;15.27;14.13;;;23.60;83.90;;;;;;4864293;29;20551;-50
2023/10/13 15:44:24;;;;;;;14.57;13.67;;;23.50;85.60;;;;;;4865741;29;21322;-48
2023/10/13 15:46:55;;;;;;;15.70;14.60;;;23.40;85.90;;;;;;4859355;29;20459;-49
2023/10/13 15:49:21;;;;;;;15.50;14.40;;;23.30;86.50;;;;;;4864571;29;21032;-50
2023/10/13 15:51:47;;;;;;;15.47;14.33;;;23.20;87.80;;;;;;4864966;29;20452;-48
2023/10/13 15:54:16;;;;;;;14.27;13.17;;;23.10;88.10;;;;;;4864418;29;20546;-51
2023/10/13 15:56:46;;;;;;;14.00;12.90;;;23.00;89.40;;;;;;4863791;29;20912;-45
2023/10/13 15:59:12;;;;;;;14.33;13.33;;;22.90;90.40;;;;;;4862495;29;20476;-53
2023/10/13 16:01:39;;;;;;;15.33;14.23;;;22.90;90.70;;;;;;4861599;29;21168;-50
2023/10/13 16:04:10;;;;;;;15.93;14.77;;;22.80;91.00;;;;;;4861981;29;20451;-52